createdAt,value
2022-07-29T00:01:42.290Z,77.10
2022-07-29T00:04:09.511Z,77.20
2022-07-29T00:06:37.013Z,77.10
2022-07-29T00:09:04.344Z,77.10
2022-07-29T00:11:31.584Z,77.10
2022-07-29T00:13:59.046Z,77.00
2022-07-29T00:16:26.268Z,77.00
2022-07-29T00:18:53.711Z,76.90
2022-07-29T00:21:20.940Z,76.70
2022-07-29T00:23:48.144Z,76.60
2022-07-29T00:26:15.365Z,76.70
2022-07-29T00:28:42.471Z,76.60
2022-07-29T00:31:09.750Z,76.60
2022-07-29T00:33:36.902Z,76.60
2022-07-29T00:36:04.322Z,76.70
2022-07-29T00:38:31.706Z,76.80
2022-07-29T00:40:59.047Z,77.00
2022-07-29T00:43:26.255Z,77.00
2022-07-29T00:45:53.654Z,77.10
2022-07-29T00:48:20.934Z,77.20
2022-07-29T00:50:48.209Z,77.00
2022-07-29T00:53:15.533Z,77.00
2022-07-29T00:55:42.766Z,76.60
2022-07-29T00:58:10.132Z,76.10
2022-07-29T01:00:38.058Z,75.70
2022-07-29T01:03:05.420Z,75.40
2022-07-29T01:05:50.222Z,75.20
2022-07-29T01:08:19.873Z,75.30
2022-07-29T01:10:47.978Z,75.00
2022-07-29T01:13:16.749Z,74.80
2022-07-29T01:15:52.836Z,74.80
2022-07-29T01:18:34.198Z,74.20
2022-07-29T01:21:19.832Z,73.80
2022-07-29T01:23:50.187Z,73.30
2022-07-29T01:26:52.719Z,73.30
2022-07-29T01:29:40.565Z,73.40
2022-07-29T01:32:28.446Z,72.40
2022-07-29T01:35:11.773Z,72.40
2022-07-29T01:37:50.450Z,71.80
2022-07-29T01:40:37.072Z,71.30
2022-07-29T01:43:28.531Z,71.20
2022-07-29T01:46:02.565Z,70.90
2022-07-29T01:48:40.145Z,69.50
2022-07-29T01:51:21.574Z,68.50
2022-07-29T01:54:07.903Z,68.60
2022-07-29T01:56:37.855Z,71.10
2022-07-29T01:59:07.757Z,72.30
2022-07-29T02:01:36.603Z,73.30
2022-07-29T02:04:07.392Z,74.20
2022-07-29T02:06:38.472Z,74.80
2022-07-29T02:09:08.225Z,75.10
2022-07-29T02:11:38.184Z,74.90
2022-07-29T02:14:07.533Z,75.00
2022-07-29T02:16:37.092Z,75.00
2022-07-29T02:19:07.759Z,74.50
2022-07-29T02:21:36.477Z,74.20
2022-07-29T02:24:05.247Z,73.90
2022-07-29T02:26:34.914Z,73.30
2022-07-29T02:29:03.377Z,73.00
2022-07-29T02:31:34.584Z,72.90
2022-07-29T02:34:04.882Z,73.70
2022-07-29T02:36:33.962Z,74.70
2022-07-29T02:39:02.350Z,75.00
2022-07-29T02:41:38.497Z,75.10
2022-07-29T02:44:11.386Z,75.10
2022-07-29T02:46:44.710Z,75.60
2022-07-29T02:49:33.053Z,76.20
2022-07-29T02:52:03.485Z,76.60
2022-07-29T02:54:45.629Z,76.90
2022-07-29T02:57:22.845Z,77.30
2022-07-29T02:59:53.972Z,77.50
2022-07-29T03:02:21.979Z,78.20
2022-07-29T03:04:50.568Z,79.00
2022-07-29T03:07:21.341Z,79.40
2022-07-29T03:09:50.023Z,79.80
2022-07-29T03:12:17.792Z,80.60
2022-07-29T03:14:45.633Z,80.90
2022-07-29T03:17:13.470Z,80.70
2022-07-29T03:19:41.702Z,80.60
2022-07-29T03:22:09.285Z,80.80
2022-07-29T03:24:37.933Z,80.90
2022-07-29T03:27:05.913Z,81.10
2022-07-29T03:29:34.621Z,81.30
2022-07-29T03:32:07.314Z,80.50
2022-07-29T03:34:37.593Z,80.40
2022-07-29T03:37:06.978Z,80.30
2022-07-29T03:39:40.395Z,80.20
2022-07-29T03:42:09.036Z,80.00
2022-07-29T03:44:37.336Z,79.70
2022-07-29T03:47:06.688Z,79.90
2022-07-29T03:49:36.031Z,79.90
2022-07-29T03:52:03.318Z,80.00
2022-07-29T03:54:36.718Z,80.00
2022-07-29T03:57:06.908Z,78.10
2022-07-29T03:59:35.169Z,77.20
2022-07-29T04:02:04.665Z,76.60
2022-07-29T04:04:35.761Z,75.20
2022-07-29T04:07:03.917Z,75.30
2022-07-29T04:09:31.311Z,75.40
2022-07-29T04:12:03.169Z,74.70
2022-07-29T04:14:33.024Z,74.10
2022-07-29T04:17:01.337Z,73.50
2022-07-29T04:19:28.512Z,73.60
2022-07-29T04:21:55.956Z,72.90
2022-07-29T04:24:23.123Z,72.60
2022-07-29T04:26:50.354Z,72.90
2022-07-29T04:29:17.649Z,73.00
2022-07-29T04:31:45.114Z,72.70
2022-07-29T04:34:13.407Z,72.40
2022-07-29T04:36:42.209Z,71.70
2022-07-29T04:39:09.538Z,71.10
2022-07-29T04:41:36.667Z,71.10
2022-07-29T04:44:07.112Z,71.30
2022-07-29T04:46:35.889Z,71.40
2022-07-29T04:49:04.420Z,71.20
2022-07-29T04:51:31.949Z,71.20
2022-07-29T04:53:59.234Z,71.40
2022-07-29T04:56:26.429Z,71.20
2022-07-29T04:58:54.368Z,71.10
2022-07-29T05:01:21.616Z,71.10
2022-07-29T05:03:48.914Z,71.30
2022-07-29T05:06:16.080Z,71.30
2022-07-29T05:08:43.325Z,71.40
2022-07-29T05:11:12.001Z,71.60
2022-07-29T05:13:46.303Z,71.70
2022-07-29T05:16:15.066Z,71.90
2022-07-29T05:18:43.335Z,71.90
2022-07-29T05:21:10.832Z,72.00
2022-07-29T05:23:38.081Z,71.60
2022-07-29T05:26:05.296Z,71.70
2022-07-29T05:28:38.940Z,71.50
2022-07-29T05:31:06.247Z,70.90
2022-07-29T05:33:36.133Z,70.60
2022-07-29T05:36:08.454Z,70.20
2022-07-29T05:38:36.863Z,70.00
2022-07-29T05:41:04.895Z,70.00
2022-07-29T05:43:32.900Z,70.40
2022-07-29T05:46:00.425Z,70.50
2022-07-29T05:48:27.901Z,70.20
2022-07-29T05:50:55.956Z,69.90
2022-07-29T05:53:23.682Z,69.80
2022-07-29T05:55:51.453Z,69.70
2022-07-29T05:58:18.721Z,69.40
2022-07-29T06:00:46.060Z,69.30
2022-07-29T06:03:13.455Z,69.00
2022-07-29T06:05:40.807Z,68.90
2022-07-29T06:08:08.408Z,68.70
2022-07-29T06:10:39.310Z,68.50
2022-07-29T06:13:06.578Z,68.30
2022-07-29T06:15:34.473Z,68.20
2022-07-29T06:18:02.562Z,67.90
2022-07-29T06:20:31.596Z,67.40
2022-07-29T06:22:59.601Z,67.30
2022-07-29T06:25:27.592Z,67.20
2022-07-29T06:27:54.687Z,66.70
2022-07-29T06:30:21.887Z,66.50
2022-07-29T06:32:49.278Z,66.10
2022-07-29T06:38:08.419Z,65.00
2022-07-29T06:41:07.137Z,65.10
2022-07-29T06:43:52.641Z,64.60
2022-07-29T06:46:23.497Z,64.50
2022-07-29T06:48:51.657Z,64.30
2022-07-29T06:51:22.462Z,63.60
2022-07-29T06:53:59.475Z,63.50
2022-07-29T06:56:38.590Z,63.00
2022-07-29T06:59:11.371Z,62.30
2022-07-29T07:01:40.704Z,62.10
2022-07-29T07:04:09.885Z,62.20
2022-07-29T07:06:37.651Z,62.80
2022-07-29T07:09:05.084Z,62.30
2022-07-29T07:11:32.453Z,62.10
2022-07-29T07:14:03.413Z,62.40
2022-07-29T07:16:32.032Z,62.20
2022-07-29T07:18:59.331Z,61.10
2022-07-29T07:21:26.622Z,62.20
2022-07-29T07:23:57.813Z,62.70
2022-07-29T07:26:25.041Z,62.80
2022-07-29T07:28:52.351Z,62.40
2022-07-29T07:31:19.787Z,61.70
2022-07-29T07:33:47.248Z,61.60
2022-07-29T07:36:14.726Z,62.30
2022-07-29T07:38:41.914Z,61.80
2022-07-29T07:41:14.823Z,60.80
2022-07-29T07:47:37.667Z,61.00
2022-07-29T07:50:44.955Z,60.30
2022-07-29T07:53:21.676Z,60.10
2022-07-29T07:56:12.236Z,61.10
2022-07-29T08:05:25.035Z,61.80
2022-07-29T08:08:03.766Z,61.50
2022-07-29T08:10:49.782Z,61.40
2022-07-29T08:13:22.080Z,60.60
2022-07-29T08:16:10.157Z,60.80
2022-07-29T08:18:48.648Z,60.00
2022-07-29T08:21:17.196Z,60.60
2022-07-29T08:23:56.165Z,59.90
2022-07-29T08:26:34.569Z,61.10
2022-07-29T08:29:06.857Z,60.80
2022-07-29T08:31:40.598Z,59.80
2022-07-29T08:34:08.345Z,59.60
2022-07-29T08:36:36.208Z,59.50
2022-07-29T08:39:04.631Z,58.50
2022-07-29T08:41:56.623Z,58.70
2022-07-29T08:44:30.532Z,59.10
2022-07-29T08:47:02.204Z,58.00
2022-07-29T08:49:29.591Z,57.40
2022-07-29T08:51:59.611Z,57.20
2022-07-29T08:54:27.113Z,55.90
2022-07-29T08:56:55.756Z,55.50
2022-07-29T08:59:28.072Z,55.10
2022-07-29T09:02:03.573Z,54.10
2022-07-29T09:04:36.713Z,53.50
2022-07-29T09:07:06.090Z,53.40
2022-07-29T09:09:35.089Z,53.10
2022-07-29T09:12:28.952Z,52.60
2022-07-29T09:15:11.642Z,52.20
2022-07-29T09:17:50.905Z,51.90
2022-07-29T09:20:26.055Z,52.50
2022-07-29T09:22:54.876Z,51.70
2022-07-29T09:25:37.134Z,51.70
2022-07-29T09:28:25.071Z,52.00
2022-07-29T09:30:59.634Z,51.80
2022-07-29T09:33:40.481Z,51.10
2022-07-29T09:36:10.017Z,50.50
2022-07-29T09:38:38.479Z,49.90
2022-07-29T09:41:07.307Z,49.60
2022-07-29T09:43:35.266Z,48.90
2022-07-29T09:46:18.378Z,48.30
2022-07-29T09:49:11.507Z,48.90
2022-07-29T09:51:39.246Z,48.90
2022-07-29T09:54:27.331Z,49.00
2022-07-29T09:56:56.065Z,49.80
2022-07-29T09:59:27.547Z,50.20
2022-07-29T10:01:55.408Z,49.20
2022-07-29T10:04:23.045Z,48.00
2022-07-29T10:07:04.447Z,48.90
2022-07-29T10:09:33.536Z,48.70
2022-07-29T10:12:20.262Z,48.70
2022-07-29T10:14:48.716Z,48.30
2022-07-29T10:17:17.607Z,48.40
2022-07-29T10:19:45.269Z,48.20
2022-07-29T10:22:12.725Z,47.90
2022-07-29T10:24:40.409Z,47.50
2022-07-29T10:27:10.330Z,46.70
2022-07-29T10:29:37.731Z,47.40
2022-07-29T10:35:34.750Z,45.80
2022-07-29T10:38:45.807Z,45.70
2022-07-29T10:41:32.347Z,44.60
2022-07-29T10:44:23.279Z,45.50
2022-07-29T10:46:52.711Z,46.90
2022-07-29T10:49:24.810Z,46.70
2022-07-29T10:52:10.745Z,45.90
2022-07-29T10:54:39.715Z,47.20
2022-07-29T10:57:54.014Z,47.90
2022-07-29T11:00:16.993Z,47.10
2022-07-29T11:02:52.400Z,47.80
2022-07-29T11:05:24.792Z,48.90
2022-07-29T11:08:20.173Z,48.40
2022-07-29T11:11:12.518Z,48.60
2022-07-29T11:13:43.674Z,46.60
2022-07-29T11:16:11.578Z,46.60
2022-07-29T11:19:13.347Z,46.00
2022-07-29T11:21:53.888Z,42.60
2022-07-29T11:24:29.348Z,41.90
2022-07-29T11:27:13.996Z,44.90
2022-07-29T11:30:04.808Z,43.10
2022-07-29T11:32:40.780Z,41.80
2022-07-29T11:35:38.593Z,41.60
2022-07-29T11:38:31.958Z,41.80
2022-07-29T11:41:18.241Z,43.10
2022-07-29T11:43:54.193Z,42.60
2022-07-29T11:46:50.544Z,42.10
2022-07-29T11:49:31.737Z,43.20
2022-07-29T11:52:02.902Z,41.70
2022-07-29T11:54:57.129Z,41.10
2022-07-29T11:57:22.371Z,41.40
2022-07-29T11:59:50.794Z,40.20
2022-07-29T12:02:37.511Z,40.80
2022-07-29T12:05:10.821Z,40.50
2022-07-29T12:07:41.180Z,40.80
2022-07-29T12:10:19.736Z,41.50
2022-07-29T12:13:01.420Z,41.90
2022-07-29T12:15:45.752Z,42.10
2022-07-29T12:18:18.423Z,42.20
2022-07-29T12:20:46.685Z,41.30
2022-07-29T12:23:16.204Z,40.80
2022-07-29T12:25:49.745Z,40.20
2022-07-29T12:28:27.501Z,40.00
2022-07-29T12:30:55.551Z,40.20
2022-07-29T12:33:30.657Z,40.90
2022-07-29T12:36:14.170Z,39.10
2022-07-29T12:38:45.065Z,39.40
2022-07-29T12:41:12.345Z,39.80
2022-07-29T12:43:56.380Z,38.80
2022-07-29T12:46:23.851Z,39.00
2022-07-29T12:49:06.683Z,37.70
2022-07-29T12:51:37.692Z,38.20
2022-07-29T12:54:07.058Z,39.50
2022-07-29T12:56:43.554Z,40.30
2022-07-29T12:59:23.021Z,39.10
2022-07-29T13:02:02.402Z,39.20
2022-07-29T13:04:38.005Z,38.40
2022-07-29T13:07:10.449Z,40.40
2022-07-29T13:09:41.198Z,39.90
2022-07-29T13:12:14.033Z,38.50
2022-07-29T13:14:44.351Z,38.00
2022-07-29T13:17:18.426Z,39.50
2022-07-29T13:19:51.066Z,39.20
2022-07-29T13:22:27.890Z,39.50
2022-07-29T13:25:03.091Z,38.80
2022-07-29T13:27:36.224Z,40.00
2022-07-29T13:30:11.758Z,39.30
2022-07-29T13:32:39.425Z,39.70
2022-07-29T13:35:13.911Z,39.00
2022-07-29T13:37:44.589Z,37.90
2022-07-29T13:40:13.822Z,37.60
2022-07-29T13:42:44.952Z,38.60
2022-07-29T13:45:26.017Z,38.20
2022-07-29T13:47:57.547Z,37.80
2022-07-29T13:50:24.702Z,38.40
2022-07-29T13:52:59.015Z,38.30
2022-07-29T13:55:26.786Z,37.20
2022-07-29T13:57:56.096Z,38.60
2022-07-29T14:00:25.765Z,38.20
2022-07-29T14:02:53.909Z,38.80
2022-07-29T14:05:21.180Z,37.90
2022-07-29T14:07:51.458Z,38.00
2022-07-29T14:10:20.253Z,38.80
2022-07-29T14:12:49.815Z,39.60
2022-07-29T14:15:19.097Z,38.80
2022-07-29T14:17:49.127Z,37.60
2022-07-29T14:20:17.246Z,38.40
2022-07-29T14:22:45.142Z,38.90
2022-07-29T14:25:14.965Z,41.10
2022-07-29T14:27:44.395Z,41.10
2022-07-29T14:30:12.056Z,42.00
2022-07-29T14:32:39.238Z,41.50
2022-07-29T14:35:08.470Z,43.70
2022-07-29T14:37:39.890Z,45.10
2022-07-29T14:40:10.045Z,45.00
2022-07-29T14:42:38.606Z,45.40
2022-07-29T14:45:07.910Z,47.50
2022-07-29T14:47:35.400Z,48.80
2022-07-29T14:50:03.513Z,48.40
2022-07-29T14:52:32.875Z,48.00
2022-07-29T14:55:03.922Z,50.10
2022-07-29T14:57:31.020Z,51.80
2022-07-29T14:59:58.273Z,52.40
2022-07-29T15:02:45.818Z,52.00
2022-07-29T15:05:14.463Z,51.90
2022-07-29T15:07:41.787Z,53.20
2022-07-29T15:10:09.441Z,53.80
2022-07-29T15:12:36.804Z,54.40
2022-07-29T15:15:04.320Z,53.90
2022-07-29T15:17:31.603Z,54.20
2022-07-29T15:20:05.091Z,54.70
2022-07-29T15:22:32.406Z,55.20
2022-07-29T15:24:59.535Z,56.30
2022-07-29T15:27:26.743Z,57.00
2022-07-29T15:29:54.010Z,56.90
2022-07-29T15:32:21.596Z,56.40
2022-07-29T15:34:48.881Z,56.50
2022-07-29T15:37:16.093Z,57.20
2022-07-29T15:39:44.515Z,57.40
2022-07-29T15:42:11.619Z,57.40
2022-07-29T15:44:38.845Z,57.00
2022-07-29T15:47:08.150Z,56.50
2022-07-29T15:49:47.111Z,56.80
2022-07-29T15:52:25.460Z,56.80
2022-07-29T15:54:57.276Z,56.60
2022-07-29T15:57:25.027Z,57.00
2022-07-29T15:59:52.656Z,56.90
2022-07-29T16:02:20.179Z,56.70
2022-07-29T16:04:47.761Z,56.30
2022-07-29T16:07:15.753Z,56.70
2022-07-29T16:09:44.836Z,56.20
2022-07-29T16:12:17.503Z,56.10
2022-07-29T16:14:45.782Z,56.10
2022-07-29T16:17:14.505Z,55.90
2022-07-29T16:19:44.080Z,55.20
2022-07-29T16:22:12.407Z,56.30
2022-07-29T16:24:39.807Z,56.30
2022-07-29T16:27:07.681Z,55.90
2022-07-29T16:29:38.728Z,55.90
2022-07-29T16:32:09.816Z,56.50
2022-07-29T16:34:43.195Z,57.10
2022-07-29T16:37:10.338Z,56.00
2022-07-29T16:39:37.859Z,56.70
2022-07-29T16:42:05.648Z,57.00
2022-07-29T16:44:33.570Z,57.50
2022-07-29T16:47:02.149Z,58.00
2022-07-29T16:49:30.598Z,58.10
2022-07-29T16:51:57.931Z,58.50
2022-07-29T16:54:26.642Z,58.00
2022-07-29T16:56:56.443Z,57.50
2022-07-29T16:59:23.781Z,57.30
2022-07-29T17:01:50.980Z,57.40
2022-07-29T17:04:18.320Z,57.70
2022-07-29T17:06:45.570Z,58.10
2022-07-29T17:09:16.526Z,58.30
2022-07-29T17:11:52.834Z,58.00
2022-07-29T17:14:27.104Z,58.50
2022-07-29T17:17:00.552Z,58.20
2022-07-29T17:19:35.473Z,58.40
2022-07-29T17:22:11.748Z,57.80
2022-07-29T17:24:43.194Z,58.20
2022-07-29T17:27:11.049Z,58.40
2022-07-29T17:29:39.151Z,58.80
2022-07-29T17:32:09.218Z,59.60
2022-07-29T17:34:38.275Z,59.90
2022-07-29T17:37:08.118Z,60.80
2022-07-29T17:39:36.177Z,61.30
2022-07-29T17:42:04.463Z,62.30
2022-07-29T17:44:32.447Z,61.60
2022-07-29T17:47:04.241Z,61.10
2022-07-29T17:49:31.492Z,60.80
2022-07-29T17:52:00.891Z,61.10
2022-07-29T17:54:28.473Z,61.20
2022-07-29T17:56:55.983Z,60.40
2022-07-29T17:59:23.373Z,61.50
2022-07-29T18:01:50.751Z,61.30
2022-07-29T18:04:21.100Z,63.00
2022-07-29T18:06:48.485Z,63.70
2022-07-29T18:09:15.748Z,62.50
2022-07-29T18:11:44.356Z,64.10
2022-07-29T18:14:13.608Z,65.60
2022-07-29T18:16:41.249Z,63.50
2022-07-29T18:19:08.680Z,64.50
2022-07-29T18:21:41.055Z,66.20
2022-07-29T18:24:18.315Z,66.20
2022-07-29T18:26:45.405Z,66.20
2022-07-29T18:29:12.785Z,66.00
2022-07-29T18:31:41.222Z,67.40
2022-07-29T18:34:08.663Z,68.20
2022-07-29T18:36:35.949Z,69.40
2022-07-29T18:39:03.293Z,70.20
2022-07-29T18:41:30.520Z,70.70
2022-07-29T18:43:57.675Z,70.20
2022-07-29T18:46:25.515Z,70.60
2022-07-29T18:48:52.963Z,71.50
2022-07-29T18:51:21.238Z,71.80
2022-07-29T18:53:48.378Z,72.20
2022-07-29T18:56:15.697Z,72.80
2022-07-29T18:58:42.837Z,73.10
2022-07-29T19:01:14.750Z,73.30
2022-07-29T19:03:44.133Z,73.70
2022-07-29T19:06:11.481Z,74.10
2022-07-29T19:08:38.660Z,74.40
2022-07-29T19:11:05.983Z,74.30
2022-07-29T19:13:33.919Z,74.60
2022-07-29T19:16:01.127Z,74.80
2022-07-29T19:18:28.313Z,75.10
2022-07-29T19:20:55.661Z,74.90
2022-07-29T19:23:22.929Z,74.90
2022-07-29T19:25:53.369Z,75.20
2022-07-29T19:28:22.673Z,75.30
2022-07-29T19:30:50.206Z,74.90
2022-07-29T19:33:19.067Z,74.30
2022-07-29T19:35:49.348Z,74.10
2022-07-29T19:38:18.997Z,74.50
2022-07-29T19:40:46.170Z,74.70
2022-07-29T19:43:50.915Z,74.90
2022-07-29T19:46:01.060Z,74.30
2022-07-29T19:48:28.326Z,74.40
2022-07-29T19:50:55.438Z,74.40
2022-07-29T19:53:22.850Z,74.60
2022-07-29T19:55:50.226Z,74.10
2022-07-29T19:58:17.438Z,73.30
2022-07-29T20:00:44.709Z,72.90
2022-07-29T20:03:13.248Z,72.50
2022-07-29T20:05:40.749Z,72.40
2022-07-29T20:08:15.124Z,72.10
2022-07-29T20:10:42.693Z,72.20
2022-07-29T20:13:10.192Z,72.20
2022-07-29T20:15:37.538Z,72.30
2022-07-29T20:18:05.097Z,72.50
2022-07-29T20:20:32.312Z,71.80
2022-07-29T20:23:02.430Z,71.20
2022-07-29T20:25:29.919Z,71.50
2022-07-29T20:27:59.907Z,72.10
2022-07-29T20:30:27.089Z,71.80
2022-07-29T20:32:54.912Z,71.10
2022-07-29T20:35:32.177Z,70.70
2022-07-29T20:38:00.541Z,70.60
2022-07-29T20:40:31.053Z,70.40
2022-07-29T20:42:58.355Z,70.30
2022-07-29T20:45:25.720Z,69.90
2022-07-29T20:47:53.494Z,69.30
2022-07-29T20:50:23.660Z,69.30
2022-07-29T20:52:52.321Z,69.40
2022-07-29T20:55:19.600Z,69.80
2022-07-29T20:57:46.836Z,69.70
2022-07-29T21:00:14.826Z,69.40
2022-07-29T21:02:42.211Z,69.40
2022-07-29T21:05:09.918Z,69.50
2022-07-29T21:07:37.223Z,69.50
2022-07-29T21:10:07.887Z,69.00
2022-07-29T21:12:35.091Z,69.20
2022-07-29T21:15:06.432Z,69.20
2022-07-29T21:17:36.216Z,69.20
2022-07-29T21:20:06.772Z,69.40
2022-07-29T21:22:34.130Z,69.50
2022-07-29T21:25:01.747Z,69.50
2022-07-29T21:27:47.426Z,68.80
2022-07-29T21:30:14.836Z,68.10
2022-07-29T21:32:42.133Z,67.80
2022-07-29T21:35:15.182Z,67.50
2022-07-29T21:37:54.859Z,66.50
2022-07-29T21:40:22.132Z,65.50
2022-07-29T21:42:49.303Z,64.70
2022-07-29T21:45:17.046Z,64.50
2022-07-29T21:47:44.239Z,64.30
2022-07-29T21:50:11.479Z,64.70
2022-07-29T21:52:39.051Z,64.90
2022-07-29T21:55:07.740Z,65.00
2022-07-29T21:57:38.082Z,64.90
2022-07-29T22:00:06.980Z,64.90
2022-07-29T22:02:40.000Z,64.70
2022-07-29T22:05:07.518Z,64.80
2022-07-29T22:07:56.585Z,65.10
2022-07-29T22:10:22.550Z,65.40
2022-07-29T22:12:53.943Z,66.20
2022-07-29T22:15:21.621Z,66.40
2022-07-29T22:17:51.490Z,66.50
2022-07-29T22:20:19.523Z,66.70
2022-07-29T22:22:47.235Z,66.80
2022-07-29T22:25:14.586Z,67.20
2022-07-29T22:27:42.021Z,67.60
2022-07-29T22:30:09.913Z,67.90
2022-07-29T22:32:37.145Z,68.10
2022-07-29T22:35:04.596Z,68.30
2022-07-29T22:37:31.878Z,69.00
2022-07-29T22:39:59.351Z,69.30
2022-07-29T22:42:26.566Z,69.70
2022-07-29T22:44:53.785Z,70.10
2022-07-29T22:47:38.951Z,70.20
2022-07-29T22:50:08.771Z,70.50
2022-07-29T22:52:35.961Z,70.60
2022-07-29T22:55:04.341Z,70.30
2022-07-29T22:57:31.610Z,70.30
2022-07-29T23:00:01.736Z,69.50
2022-07-29T23:02:29.184Z,68.20
2022-07-29T23:04:57.109Z,67.80
2022-07-29T23:07:24.528Z,67.20
2022-07-29T23:09:52.144Z,67.10
2022-07-29T23:12:19.228Z,67.20
2022-07-29T23:14:46.500Z,67.30
2022-07-29T23:17:13.819Z,67.20
2022-07-29T23:19:40.975Z,67.30
2022-07-29T23:22:08.153Z,67.40
2022-07-29T23:24:35.447Z,67.30
2022-07-29T23:27:02.956Z,67.40
2022-07-29T23:29:34.953Z,67.40
2022-07-29T23:32:03.977Z,67.50
2022-07-29T23:34:31.155Z,67.70
2022-07-29T23:36:58.987Z,67.40
2022-07-29T23:39:26.400Z,67.30
2022-07-29T23:41:53.761Z,66.70
2022-07-29T23:44:21.049Z,66.60
2022-07-29T23:46:48.246Z,65.80
2022-07-29T23:49:15.633Z,65.70
2022-07-29T23:51:42.793Z,65.30
2022-07-29T23:54:10.037Z,64.90
2022-07-29T23:56:37.232Z,64.50
2022-07-29T23:59:05.977Z,64.60
